Time;durP1;ratioP1;P1;durP2;ratioP2;P2;SDS_P1;SDS_P2;PMS_P1;PMS_P2;Temp;Humidity;BMP_temperature;BMP_pressure;BME280_temperature;BME280_humidity;BME280_pressure;Samples;Min_cycle;Max_cycle;Signal;HPM_P1;HPM_P2
2021/09/28 00:00:13;;;;;;;13.83;9.57;;;16.80;92.30;;;;;;5103695;28;20083;-73
2021/09/28 00:02:39;;;;;;;;;;;16.80;92.20;;;;;;5103101;28;20272;-73
2021/09/28 00:05:05;;;;;;;14.15;9.48;;;16.80;92.30;;;;;;5104930;28;19934;-73
2021/09/28 00:07:31;;;;;;;17.48;9.02;;;16.70;92.20;;;;;;5070140;28;20024;-74
2021/09/28 00:09:57;;;;;;;13.33;8.97;;;16.70;92.50;;;;;;5104647;28;20047;-74
2021/09/28 00:12:23;;;;;;;11.53;8.37;;;16.70;92.30;;;;;;5104421;28;20024;-74
2021/09/28 00:14:48;;;;;;;13.57;9.30;;;16.60;92.20;;;;;;5086697;28;20027;-73
2021/09/28 00:17:14;;;;;;;14.97;9.27;;;16.60;92.20;;;;;;5103510;28;20027;-74
2021/09/28 00:19:40;;;;;;;13.20;8.70;;;16.50;92.10;;;;;;5069897;28;20016;-73
2021/09/28 00:22:06;;;;;;;15.30;9.23;;;16.40;92.20;;;;;;5053052;28;20016;-74
2021/09/28 00:24:33;;;;;;;15.02;9.27;;;16.40;92.10;;;;;;5086642;28;20039;-73
2021/09/28 00:27:00;;;;;;;14.20;9.25;;;16.40;92.10;;;;;;5102954;28;20222;-74
2021/09/28 00:29:26;;;;;;;;;;;16.40;92.10;;;;;;5087118;28;20024;-74
2021/09/28 00:31:52;;;;;;;14.55;9.20;;;16.30;92.30;;;;;;5104150;28;20443;-74
2021/09/28 00:34:18;;;;;;;14.82;9.90;;;16.30;92.30;;;;;;5086504;28;20035;-73
2021/09/28 00:36:44;;;;;;;16.08;9.52;;;16.30;93.80;;;;;;5103039;28;20023;-73
2021/09/28 00:39:10;;;;;;;12.57;8.40;;;16.30;92.30;;;;;;5104208;28;20024;-73
2021/09/28 00:41:36;;;;;;;13.97;9.33;;;16.20;92.20;;;;;;5102631;28;20024;-73
2021/09/28 00:44:02;;;;;;;17.30;9.00;;;16.20;92.40;;;;;;5104204;28;20331;-73
2021/09/28 00:46:27;;;;;;;15.47;9.37;;;16.20;92.40;;;;;;5069647;28;20262;-74
2021/09/28 00:48:53;;;;;;;15.90;10.03;;;16.20;92.40;;;;;;5103720;28;20069;-74
2021/09/28 00:51:20;;;;;;;14.43;9.47;;;16.10;92.50;;;;;;5085880;28;20020;-74
2021/09/28 00:53:47;;;;;;;16.20;9.70;;;16.10;93.40;;;;;;5102792;28;20286;-74
2021/09/28 00:56:18;;;;;;;16.38;9.15;;;16.10;92.60;;;;;;5068425;28;20024;-73
2021/09/28 00:58:44;;;;;;;16.33;10.00;;;16.10;92.60;;;;;;5102705;28;20020;-74
2021/09/28 01:01:10;;;;;;;15.95;10.02;;;16.10;92.60;;;;;;5085640;28;20361;-73
2021/09/28 01:03:36;;;;;;;13.13;9.18;;;16.00;92.60;;;;;;5119638;28;20203;-73
2021/09/28 01:06:02;;;;;;;15.97;9.50;;;15.90;92.90;;;;;;5102611;28;20074;-74
2021/09/28 01:08:28;;;;;;;17.83;9.47;;;15.90;92.70;;;;;;5103697;28;20349;-74
2021/09/28 01:10:54;;;;;;;15.37;9.60;;;15.90;92.90;;;;;;5102089;28;20055;-74
2021/09/28 01:13:21;;;;;;;14.98;10.05;;;15.80;92.80;;;;;;5102098;28;20062;-74
2021/09/28 01:16:09;;;;;;;13.35;8.90;;;15.80;93.00;;;;;;5069089;28;20027;-74
2021/09/28 01:18:36;;;;;;;15.25;9.38;;;15.80;92.90;;;;;;5069043;28;20012;-74
2021/09/28 01:21:03;;;;;;;13.70;8.70;;;15.80;92.90;;;;;;5085543;28;20027;-74
2021/09/28 01:23:29;;;;;;;16.05;9.48;;;15.80;93.00;;;;;;5085602;28;20086;-74
2021/09/28 01:25:55;;;;;;;11.37;7.20;;;15.90;93.00;;;;;;5101727;28;20047;-73
2021/09/28 01:28:21;;;;;;;10.80;7.10;;;15.90;92.80;;;;;;5103394;28;20028;-74
2021/09/28 01:30:47;;;;;;;9.63;6.03;;;16.00;92.70;;;;;;5102004;28;20226;-74
2021/09/28 01:33:13;;;;;;;10.90;6.70;;;16.00;92.60;;;;;;5103244;28;20024;-74
2021/09/28 01:35:40;;;;;;;11.43;6.38;;;15.90;92.70;;;;;;5068575;28;20375;-73
2021/09/28 01:38:06;;;;;;;11.00;6.55;;;15.90;92.80;;;;;;5102187;28;20024;-73
2021/09/28 01:40:33;;;;;;;8.75;6.20;;;15.90;92.70;;;;;;5101782;28;20024;-73
2021/09/28 01:43:09;;;;;;;12.43;7.28;;;15.80;92.90;;;;;;5101841;28;20103;-73
2021/09/28 01:45:36;;;;;;;10.55;7.60;;;15.80;92.90;;;;;;5068572;28;20042;-73
2021/09/28 01:48:02;;;;;;;11.25;7.22;;;15.90;92.90;;;;;;5085344;28;20020;-74
2021/09/28 01:50:30;;;;;;;14.47;8.80;;;16.00;92.80;;;;;;5084578;28;20031;-74
2021/09/28 01:52:56;;;;;;;14.18;8.40;;;16.00;92.90;;;;;;5068795;28;20028;-73
2021/09/28 01:55:22;;;;;;;13.47;8.37;;;16.00;92.90;;;;;;5101781;28;20218;-74
2021/09/28 01:57:48;;;;;;;11.60;7.90;;;15.90;93.00;;;;;;5084899;28;20023;-74
2021/09/28 02:00:14;;;;;;;12.00;7.83;;;16.00;92.90;;;;;;5102632;28;20031;-74
2021/09/28 02:02:40;;;;;;;11.07;7.88;;;16.10;92.80;;;;;;5102915;28;20026;-73
2021/09/28 02:05:07;;;;;;;14.57;9.17;;;16.10;92.90;;;;;;5101708;28;20048;-73
2021/09/28 02:07:33;;;;;;;12.70;8.55;;;16.10;92.90;;;;;;5101675;28;20028;-73
2021/09/28 02:09:58;;;;;;;8.23;5.47;;;16.20;93.00;;;;;;5102602;28;20218;-73
2021/09/28 02:12:24;;;;;;;7.93;4.40;;;16.10;92.00;;;;;;5101473;28;20020;-74
2021/09/28 02:14:50;;;;;;;3.73;2.80;;;16.20;91.60;;;;;;5101669;28;20035;-74
2021/09/28 02:17:16;;;;;;;3.70;2.70;;;16.30;91.10;;;;;;5102695;28;20114;-74
2021/09/28 02:19:41;;;;;;;1.80;1.53;;;16.30;90.90;;;;;;5101525;28;20075;-73
2021/09/28 02:22:07;;;;;;;2.07;1.23;;;16.20;90.40;;;;;;5102455;28;20349;-74
2021/09/28 02:24:33;;;;;;;3.17;1.20;;;16.20;89.80;;;;;;5101752;28;20074;-73
2021/09/28 02:26:59;;;;;;;1.87;1.23;;;16.10;89.50;;;;;;5106386;28;20024;-73
2021/09/28 02:29:24;;;;;;;2.27;1.10;;;16.10;89.60;;;;;;5106825;28;20264;-74
2021/09/28 02:31:50;;;;;;;4.87;1.80;;;16.00;89.70;;;;;;5105386;28;20087;-73
2021/09/28 02:34:16;;;;;;;3.23;0.80;;;16.10;88.90;;;;;;5105529;28;20032;-74
2021/09/28 02:36:42;;;;;;;1.50;0.93;;;16.10;88.60;;;;;;5106520;28;20196;-73
2021/09/28 02:39:09;;;;;;;0.70;0.70;;;16.00;87.60;;;;;;5106665;28;20074;-73
2021/09/28 02:41:36;;;;;;;2.35;0.80;;;16.00;97.10;;;;;;5088073;28;20225;-74
2021/09/28 02:44:02;;;;;;;0.70;0.60;;;16.10;95.70;;;;;;5088792;28;20318;-74
2021/09/28 02:46:29;;;;;;;;;;;16.10;94.60;;;;;;5105805;28;20027;-74
2021/09/28 02:48:55;;;;;;;0.50;0.50;;;16.10;94.50;;;;;;5105320;28;20110;-74
2021/09/28 02:51:21;;;;;;;0.70;0.60;;;15.80;94.50;;;;;;5088184;28;20043;-74
2021/09/28 02:53:47;;;;;;;2.35;0.60;;;15.70;89.30;;;;;;5088350;28;20023;-74
2021/09/28 02:56:13;;;;;;;1.17;0.93;;;15.60;88.20;;;;;;5103871;28;20222;-74
2021/09/28 02:58:39;;;;;;;1.97;0.80;;;15.60;89.10;;;;;;5105205;28;20016;-74
2021/09/28 03:01:04;;;;;;;0.70;0.70;;;15.60;88.60;;;;;;5088028;28;20061;-73
2021/09/28 03:03:30;;;;;;;0.70;0.60;;;15.60;87.90;;;;;;5071571;28;20028;-74
2021/09/28 03:05:56;;;;;;;1.60;0.50;;;15.70;88.00;;;;;;5088014;28;20024;-73
2021/09/28 03:08:22;;;;;;;0.93;0.77;;;15.70;87.40;;;;;;5088154;28;20027;-74
2021/09/28 03:10:47;;;;;;;0.47;0.47;;;15.60;87.50;;;;;;5105507;28;20028;-73
2021/09/28 03:13:13;;;;;;;0.87;0.60;;;15.70;88.50;;;;;;5104809;28;20222;-74
2021/09/28 03:15:40;;;;;;;0.63;0.63;;;15.70;86.70;;;;;;5088032;28;20429;-74
2021/09/28 03:18:05;;;;;;;2.33;0.50;;;15.70;87.40;;;;;;5087613;28;20062;-74
2021/09/28 03:20:31;;;;;;;0.40;0.40;;;15.70;87.10;;;;;;5087040;28;20023;-74
2021/09/28 03:22:57;;;;;;;0.40;0.40;;;15.70;86.30;;;;;;5104167;28;20080;-74
2021/09/28 03:25:23;;;;;;;0.83;0.40;;;15.50;86.40;;;;;;5105042;28;20020;-74
2021/09/28 03:27:49;;;;;;;1.27;0.60;;;15.50;86.50;;;;;;5087025;28;20233;-74
2021/09/28 03:30:15;;;;;;;2.17;0.50;;;15.40;86.30;;;;;;5104884;28;20032;-74
2021/09/28 03:32:41;;;;;;;0.60;0.60;;;15.40;86.50;;;;;;5103960;28;20079;-74
2021/09/28 03:35:11;;;;;;;1.33;0.47;;;15.40;86.00;;;;;;5103833;28;20054;-74
2021/09/28 03:37:42;;;;;;;0.98;0.57;;;15.20;86.20;;;;;;5071069;28;20020;-74
2021/09/28 03:40:09;;;;;;;0.95;0.60;;;15.00;87.20;;;;;;5103516;28;20020;-73
2021/09/28 03:42:35;;;;;;;0.77;0.60;;;15.10;87.50;;;;;;5070395;28;20084;-74
2021/09/28 03:45:02;;;;;;;1.33;0.90;;;15.00;88.20;;;;;;5086945;28;20024;-74
2021/09/28 03:47:27;;;;;;;2.75;1.08;;;14.90;88.30;;;;;;5103669;28;20020;-74
2021/09/28 03:49:53;;;;;;;1.70;0.77;;;14.80;88.20;;;;;;5104301;28;20091;-74
2021/09/28 03:52:19;;;;;;;0.73;0.67;;;14.70;88.60;;;;;;5103478;28;20023;-74
2021/09/28 03:54:45;;;;;;;1.67;1.37;;;14.50;89.70;;;;;;5103334;28;20032;-74
2021/09/28 03:57:11;;;;;;;1.87;0.73;;;14.60;90.00;;;;;;5104366;28;20047;-74
2021/09/28 03:59:36;;;;;;;1.87;1.00;;;14.70;89.80;;;;;;5103487;28;20023;-75
2021/09/28 04:02:02;;;;;;;1.47;1.20;;;14.70;88.70;;;;;;5104282;28;20030;-74
2021/09/28 04:04:28;;;;;;;4.37;1.10;;;14.50;90.00;;;;;;5104422;28;20043;-75
2021/09/28 04:06:54;;;;;;;1.10;1.00;;;14.50;90.00;;;;;;5104455;28;20318;-74
2021/09/28 04:09:20;;;;;;;2.17;1.30;;;14.40;90.20;;;;;;5104295;28;20019;-75
2021/09/28 04:11:46;;;;;;;3.83;2.30;;;14.40;90.90;;;;;;5102781;28;20035;-75
2021/09/28 04:14:15;;;;;;;1.58;1.42;;;14.40;90.80;;;;;;5104214;28;20261;-74
2021/09/28 04:16:40;;;;;;;3.05;1.40;;;14.40;90.80;;;;;;5086319;28;20203;-75
2021/09/28 04:19:06;;;;;;;2.63;1.30;;;14.40;91.00;;;;;;5102953;28;20024;-75
2021/09/28 04:21:32;;;;;;;2.03;1.50;;;14.30;90.70;;;;;;5102794;28;20030;-75
2021/09/28 04:23:58;;;;;;;2.70;1.50;;;14.20;91.30;;;;;;5104074;28;20374;-75
2021/09/28 04:26:24;;;;;;;2.70;1.47;;;14.20;94.60;;;;;;5085672;28;20032;-75
2021/09/28 04:28:50;;;;;;;2.37;1.57;;;14.10;94.40;;;;;;5086240;28;20265;-75
2021/09/28 04:31:16;;;;;;;3.03;1.60;;;14.10;91.00;;;;;;5102765;28;20054;-75
2021/09/28 04:33:45;;;;;;;1.80;1.23;;;14.20;90.70;;;;;;5103925;28;20024;-75
2021/09/28 04:36:11;;;;;;;2.05;1.33;;;14.20;90.70;;;;;;5102595;28;20030;-74
2021/09/28 04:38:37;;;;;;;1.50;1.30;;;14.10;90.50;;;;;;5102798;28;20027;-74
2021/09/28 04:41:03;;;;;;;2.00;1.30;;;14.20;90.20;;;;;;5102267;28;20091;-75
2021/09/28 04:43:29;;;;;;;3.47;1.50;;;14.10;90.50;;;;;;5103873;28;20028;-75
2021/09/28 04:45:55;;;;;;;2.27;1.50;;;14.10;90.50;;;;;;5103577;28;20024;-75
2021/09/28 04:48:21;;;;;;;4.57;2.00;;;14.10;90.20;;;;;;5101781;28;20020;-74
2021/09/28 04:50:47;;;;;;;3.17;2.00;;;14.10;90.40;;;;;;5102807;28;20257;-75
2021/09/28 04:53:16;;;;;;;4.33;2.70;;;14.10;90.30;;;;;;5103635;28;20074;-75
2021/09/28 04:55:42;;;;;;;4.43;2.25;;;14.20;90.50;;;;;;5102947;28;20027;-75
2021/09/28 04:58:07;;;;;;;4.60;2.50;;;14.30;90.10;;;;;;5089728;28;20020;-75
2021/09/28 05:00:33;;;;;;;4.40;2.77;;;14.30;90.10;;;;;;5080746;28;20035;-74
2021/09/28 05:02:59;;;;;;;2.57;1.87;;;14.40;89.50;;;;;;5065098;28;20021;-75
2021/09/28 05:05:25;;;;;;;4.60;2.47;;;14.30;89.10;;;;;;5083009;28;20036;-75
2021/09/28 05:07:50;;;;;;;3.27;2.20;;;14.30;89.70;;;;;;5081771;28;20098;-75
2021/09/28 05:10:16;;;;;;;4.20;2.77;;;14.20;89.70;;;;;;5048205;28;20322;-74
2021/09/28 05:12:42;;;;;;;6.07;3.03;;;14.40;90.10;;;;;;5081483;28;20024;-75
2021/09/28 05:15:08;;;;;;;4.97;3.00;;;14.30;89.30;;;;;;5065099;28;20025;-75
2021/09/28 05:17:35;;;;;;;5.57;3.67;;;14.40;89.60;;;;;;5082684;28;20035;-75
2021/09/28 05:20:03;;;;;;;4.38;3.13;;;14.30;89.00;;;;;;5082619;28;20044;-75
2021/09/28 05:22:29;;;;;;;4.45;2.78;;;14.30;88.80;;;;;;5065234;28;20346;-75
2021/09/28 05:24:55;;;;;;;3.77;2.90;;;14.40;88.90;;;;;;5082822;28;20024;-75
2021/09/28 05:27:20;;;;;;;6.80;3.07;;;14.30;89.50;;;;;;5085847;23;20231;-71
2021/09/28 05:29:46;;;;;;;4.03;2.77;;;14.40;89.20;;;;;;5025236;28;20021;-72
2021/09/28 05:32:12;;;;;;;4.27;3.13;;;14.40;88.60;;;;;;5023006;28;20025;-72
2021/09/28 05:34:38;;;;;;;5.23;3.27;;;14.50;89.40;;;;;;5023241;28;20045;-72
2021/09/28 05:37:04;;;;;;;4.63;3.33;;;14.40;89.20;;;;;;5021962;28;20383;-72
2021/09/28 05:39:30;;;;;;;8.27;3.58;;;14.40;89.40;;;;;;5023093;28;20021;-72
2021/09/28 05:41:56;;;;;;;5.73;3.40;;;14.30;89.40;;;;;;5022844;28;20137;-72
2021/09/28 05:44:21;;;;;;;4.47;3.60;;;14.40;88.20;;;;;;5022942;28;20026;-71
2021/09/28 05:46:47;;;;;;;8.50;4.70;;;14.40;89.40;;;;;;5023106;28;20026;-72
2021/09/28 05:49:13;;;;;;;6.90;4.07;;;14.50;89.20;;;;;;5022667;28;20049;-72
2021/09/28 05:51:44;;;;;;;6.27;3.10;;;14.50;89.50;;;;;;5022543;28;20026;-72
2021/09/28 05:54:10;;;;;;;5.28;3.45;;;14.60;88.40;;;;;;5015910;28;20351;-72
2021/09/28 05:56:36;;;;;;;5.00;2.53;;;14.50;88.20;;;;;;5003389;28;20026;-72
2021/09/28 05:59:02;;;;;;;5.53;2.63;;;14.50;88.20;;;;;;5019710;28;20313;-72
2021/09/28 06:01:28;;;;;;;7.07;3.67;;;14.60;88.80;;;;;;5021680;28;20052;-72
2021/09/28 06:03:53;;;;;;;5.93;3.70;;;14.50;87.80;;;;;;5038152;28;20101;-72
2021/09/28 06:06:23;;;;;;;6.13;3.43;;;14.40;89.20;;;;;;5022869;28;20271;-72
2021/09/28 06:08:49;;;;;;;4.10;3.00;;;14.30;89.20;;;;;;5037159;28;20025;-72
2021/09/28 06:11:15;;;;;;;5.20;3.07;;;14.30;89.50;;;;;;5037864;28;20084;-71
2021/09/28 06:13:41;;;;;;;6.13;3.00;;;14.30;89.80;;;;;;5022568;28;20030;-72
2021/09/28 06:16:07;;;;;;;5.72;3.47;;;14.30;90.00;;;;;;5037987;28;20335;-72
2021/09/28 06:18:32;;;;;;;5.43;3.83;;;14.30;90.10;;;;;;5022452;28;20060;-72
2021/09/28 06:20:58;;;;;;;5.67;3.90;;;14.30;90.20;;;;;;5022155;28;20029;-71
2021/09/28 06:23:24;;;;;;;7.50;3.50;;;14.30;90.50;;;;;;5022652;28;20037;-71
2021/09/28 06:25:50;;;;;;;5.17;3.33;;;14.40;90.30;;;;;;5021450;28;20079;-71
2021/09/28 06:28:18;;;;;;;6.33;3.70;;;14.40;90.50;;;;;;5021183;28;20026;-72
2021/09/28 06:30:43;;;;;;;5.95;3.45;;;14.50;90.50;;;;;;5022061;28;20399;-71
2021/09/28 06:33:09;;;;;;;7.60;3.43;;;14.50;90.20;;;;;;5022467;28;20033;-72
2021/09/28 06:35:35;;;;;;;8.93;3.70;;;14.60;90.40;;;;;;5022481;28;20022;-74
2021/09/28 06:38:03;;;;;;;5.43;3.50;;;14.60;90.30;;;;;;5037672;28;20030;-71
2021/09/28 06:40:29;;;;;;;8.30;3.67;;;14.60;90.20;;;;;;5022196;28;20028;-71
2021/09/28 06:42:55;;;;;;;5.47;3.03;;;14.70;89.80;;;;;;5021198;28;20223;-70
2021/09/28 06:45:23;;;;;;;4.83;3.20;;;14.60;89.50;;;;;;5022376;28;20370;-71
2021/09/28 06:47:48;;;;;;;5.65;3.00;;;14.80;90.10;;;;;;5022370;28;20018;-70
2021/09/28 06:50:14;;;;;;;7.60;3.90;;;14.90;90.10;;;;;;5021895;28;20086;-73
2021/09/28 06:52:42;;;;;;;4.80;3.03;;;15.00;90.30;;;;;;5037694;28;20013;-69
2021/09/28 06:55:09;;;;;;;4.82;3.30;;;14.80;88.20;;;;;;5022096;28;20092;-69
2021/09/28 06:57:35;;;;;;;5.82;2.92;;;14.90;89.80;;;;;;5021441;28;20037;-69
2021/09/28 07:00:01;;;;;;;6.20;3.03;;;14.70;87.80;;;;;;5021729;28;20221;-69
2021/09/28 07:02:27;;;;;;;5.57;3.30;;;14.60;88.10;;;;;;5037350;28;20080;-69
2021/09/28 07:04:53;;;;;;;7.30;3.20;;;14.80;88.80;;;;;;5022043;28;20034;-69
2021/09/28 07:07:20;;;;;;;5.10;3.50;;;15.00;88.30;;;;;;5022179;28;20243;-69
2021/09/28 07:09:45;;;;;;;7.72;3.15;;;15.10;88.20;;;;;;5022324;28;20030;-69
2021/09/28 07:12:11;;;;;;;7.07;4.80;;;14.90;88.30;;;;;;5024569;28;20089;-69
2021/09/28 07:14:37;;;;;;;4.83;3.07;;;15.00;87.80;;;;;;5041174;28;20270;-69
2021/09/28 07:17:03;;;;;;;5.07;3.53;;;15.10;88.40;;;;;;5025800;28;20018;-70
2021/09/28 07:19:29;;;;;;;6.28;3.83;;;14.90;86.90;;;;;;5024846;28;20024;-69
2021/09/28 07:21:55;;;;;;;6.07;3.43;;;14.80;86.60;;;;;;5025527;28;20030;-68
2021/09/28 07:24:21;;;;;;;7.00;3.73;;;14.80;88.00;;;;;;5025723;28;20101;-70
2021/09/28 07:26:47;;;;;;;6.65;3.67;;;15.00;87.00;;;;;;5041078;28;20084;-69
2021/09/28 07:29:12;;;;;;;7.27;4.23;;;15.10;88.20;;;;;;5025131;28;20099;-70
2021/09/28 07:31:38;;;;;;;5.70;3.43;;;15.20;87.70;;;;;;5025380;28;20093;-69
2021/09/28 07:34:04;;;;;;;8.60;4.03;;;15.00;86.70;;;;;;5025003;28;20030;-69
2021/09/28 07:36:30;;;;;;;5.93;4.20;;;15.10;86.20;;;;;;5025303;28;20064;-69
2021/09/28 07:38:56;;;;;;;8.13;3.77;;;15.10;85.60;;;;;;5025315;28;20021;-70
2021/09/28 07:41:22;;;;;;;4.67;3.30;;;15.20;85.60;;;;;;5025122;28;20025;-69
2021/09/28 07:43:47;;;;;;;4.83;3.00;;;15.10;85.50;;;;;;5023919;28;20590;-69
2021/09/28 07:46:13;;;;;;;4.37;2.93;;;15.10;85.50;;;;;;5025441;28;20249;-69
2021/09/28 07:48:39;;;;;;;6.83;3.60;;;15.10;84.90;;;;;;5025226;28;20025;-68
2021/09/28 07:51:05;;;;;;;7.90;3.40;;;15.20;86.30;;;;;;5024903;28;20224;-69
2021/09/28 07:53:31;;;;;;;5.90;3.67;;;15.30;85.20;;;;;;5024918;28;20034;-69
2021/09/28 07:55:57;;;;;;;6.87;3.60;;;15.40;84.20;;;;;;5025175;28;20036;-72
2021/09/28 07:58:22;;;;;;;4.30;3.47;;;15.50;84.70;;;;;;5024694;28;20036;-72
2021/09/28 08:00:48;;;;;;;4.93;3.73;;;15.60;83.60;;;;;;5024749;28;20160;-72
2021/09/28 08:03:14;;;;;;;8.40;4.27;;;15.60;82.90;;;;;;5040357;28;20053;-72
2021/09/28 08:05:40;;;;;;;5.03;3.43;;;15.40;82.30;;;;;;5023748;28;20034;-73
2021/09/28 08:08:06;;;;;;;4.47;3.23;;;15.40;83.50;;;;;;5023771;28;20033;-72
2021/09/28 08:10:32;;;;;;;5.07;3.10;;;15.60;83.00;;;;;;5024570;28;20367;-73
2021/09/28 08:13:03;;;;;;;5.50;3.07;;;15.60;83.50;;;;;;5039867;28;20084;-72
2021/09/28 08:15:29;;;;;;;7.97;3.10;;;15.80;83.80;;;;;;5040035;28;20026;-70
2021/09/28 08:17:54;;;;;;;4.63;2.90;;;15.90;81.80;;;;;;5024628;28;20149;-69
2021/09/28 08:20:22;;;;;;;3.67;2.50;;;15.80;79.50;;;;;;5024356;28;20018;-69
2021/09/28 08:22:48;;;;;;;4.72;2.60;;;15.90;78.80;;;;;;5023578;28;20316;-69
2021/09/28 08:25:17;;;;;;;4.60;2.37;;;15.90;79.90;;;;;;5039702;28;20093;-69
2021/09/28 08:30:27;;;;;;;5.40;2.50;;;15.90;79.10;;;;;;5024120;28;20032;-69
2021/09/28 08:32:53;;;;;;;3.93;2.70;;;15.70;78.70;;;;;;5024514;28;20025;-69
2021/09/28 08:35:19;;;;;;;6.63;2.90;;;15.70;79.80;;;;;;5024320;28;20029;-69
2021/09/28 08:37:45;;;;;;;8.27;2.50;;;15.70;78.30;;;;;;5024270;28;20030;-69
2021/09/28 08:40:13;;;;;;;6.50;2.60;;;15.60;79.90;;;;;;5039332;28;20029;-69
2021/09/28 08:42:39;;;;;;;3.22;2.47;;;15.80;79.90;;;;;;5023973;28;20030;-70
2021/09/28 08:45:07;;;;;;;6.78;2.83;;;15.50;78.60;;;;;;5023757;28;20022;-69
2021/09/28 08:47:43;;;;;;;4.45;2.45;;;15.70;77.90;;;;;;5024112;28;20040;-70
2021/09/28 08:50:18;;;;;;;3.70;2.05;;;15.80;79.30;;;;;;5023806;28;20022;-70
2021/09/28 08:52:46;;;;;;;3.42;2.08;;;16.00;77.30;;;;;;5023898;28;20081;-69
2021/09/28 08:55:12;;;;;;;3.80;2.10;;;16.00;77.50;;;;;;5023927;28;20378;-70
2021/09/28 08:57:39;;;;;;;3.95;1.95;;;16.20;76.50;;;;;;5021578;28;20026;-69
2021/09/28 09:00:16;;;;;;;3.40;1.98;;;16.10;75.40;;;;;;5038741;28;20029;-70
2021/09/28 09:02:46;;;;;;;2.33;1.70;;;16.10;74.90;;;;;;5023764;28;20051;-69
2021/09/28 09:05:14;;;;;;;4.07;1.80;;;16.10;75.50;;;;;;5023782;28;20025;-70
2021/09/28 09:07:41;;;;;;;2.33;1.83;;;16.30;76.40;;;;;;5022504;28;20029;-69
2021/09/28 09:10:07;;;;;;;;;;;16.30;73.80;;;;;;5024011;28;20022;-69
2021/09/28 09:12:41;;;;;;;2.30;1.65;;;16.00;75.30;;;;;;5023346;28;19905;-68
2021/09/28 09:15:29;;;;;;;7.43;2.90;;;16.00;74.20;;;;;;5023561;28;20021;-69
2021/09/28 09:18:06;;;;;;;;;;;16.00;75.70;;;;;;5039415;28;20315;-70
2021/09/28 09:20:38;;;;;;;4.18;2.10;;;16.20;77.20;;;;;;5023293;28;20115;-69
2021/09/28 09:23:37;;;;;;;5.03;1.58;;;16.10;73.30;;;;;;5038597;28;20022;-70
2021/09/28 09:26:14;;;;;;;4.18;2.67;;;16.10;74.80;;;;;;5001051;28;20033;-70
2021/09/28 09:28:52;;;;;;;4.68;2.25;;;15.90;74.40;;;;;;5022963;28;20033;-69
2021/09/28 09:31:34;;;;;;;4.07;2.47;;;15.70;75.10;;;;;;5023121;28;20316;-69
2021/09/28 09:34:19;;;;;;;3.58;2.53;;;15.80;75.70;;;;;;5023071;28;20034;-70
2021/09/28 09:36:57;;;;;;;5.47;2.38;;;15.80;74.80;;;;;;5023396;28;20014;-69
2021/09/28 09:39:25;;;;;;;7.15;3.00;;;15.90;75.70;;;;;;5023465;28;20048;-69
2021/09/28 09:42:07;;;;;;;3.72;2.00;;;16.10;75.60;;;;;;5021948;28;20028;-70
2021/09/28 09:44:33;;;;;;;4.45;2.13;;;16.30;75.20;;;;;;5037940;28;20071;-69
2021/09/28 09:47:01;;;;;;;3.00;2.53;;;16.40;73.90;;;;;;5022889;28;20030;-69
2021/09/28 09:49:34;;;;;;;6.72;2.97;;;16.60;71.30;;;;;;5023076;28;20079;-69
2021/09/28 09:52:11;;;;;;;4.82;2.75;;;16.70;72.70;;;;;;5022899;28;20029;-69
2021/09/28 09:54:44;;;;;;;3.22;2.47;;;16.60;72.10;;;;;;5022931;28;20044;-69
2021/09/28 09:57:13;;;;;;;5.95;2.33;;;16.90;72.40;;;;;;5022921;28;20045;-70
2021/09/28 09:59:39;;;;;;;3.42;2.00;;;17.00;71.40;;;;;;5022115;28;20343;-70
2021/09/28 10:02:07;;;;;;;4.63;2.10;;;17.30;72.00;;;;;;5021349;28;20077;-69
2021/09/28 10:04:33;;;;;;;2.38;1.80;;;17.40;71.70;;;;;;5022903;28;20026;-70
2021/09/28 10:07:02;;;;;;;3.80;1.83;;;17.40;68.40;;;;;;5022814;28;20257;-70
2021/09/28 10:09:37;;;;;;;3.03;1.98;;;17.20;66.30;;;;;;5022708;28;20026;-70
2021/09/28 10:12:10;;;;;;;2.78;1.88;;;17.50;70.60;;;;;;5005931;28;20060;-69
2021/09/28 10:14:41;;;;;;;3.75;2.17;;;17.90;68.30;;;;;;5022485;28;20033;-69
2021/09/28 10:17:28;;;;;;;2.67;1.70;;;18.20;65.40;;;;;;5022701;28;20022;-69
2021/09/28 10:20:03;;;;;;;5.88;2.45;;;18.20;64.60;;;;;;5022548;28;20354;-69
2021/09/28 10:22:48;;;;;;;2.35;1.50;;;18.30;65.80;;;;;;5022868;28;20033;-69
2021/09/28 10:27:54;;;;;;;3.50;1.95;;;18.10;66.00;;;;;;5022217;28;20252;-69
2021/09/28 10:30:32;;;;;;;5.00;1.90;;;18.00;67.40;;;;;;5022280;28;20552;-69
2021/09/28 10:33:22;;;;;;;3.47;1.75;;;17.90;66.90;;;;;;5022615;28;20025;-68
2021/09/28 10:36:13;;;;;;;2.33;1.90;;;17.60;64.10;;;;;;5022613;28;20037;-69
2021/09/28 10:38:54;;;;;;;4.13;1.83;;;17.50;65.10;;;;;;5022402;28;20068;-68
2021/09/28 10:41:45;;;;;;;3.28;2.10;;;17.60;64.40;;;;;;5022569;28;20025;-69
2021/09/28 10:44:26;;;;;;;4.00;1.90;;;17.50;66.50;;;;;;5022479;28;20026;-69
2021/09/28 10:46:53;;;;;;;4.70;1.83;;;17.50;64.20;;;;;;5024681;28;20026;-69
2021/09/28 10:49:37;;;;;;;4.75;2.40;;;17.60;67.50;;;;;;5026286;28;20018;-69
2021/09/28 10:52:21;;;;;;;3.30;1.92;;;17.80;65.30;;;;;;5026163;28;20025;-69
2021/09/28 10:55:05;;;;;;;4.75;1.90;;;18.10;64.00;;;;;;5026164;28;20056;-70
2021/09/28 11:00:26;;;;;;;3.28;2.17;;;18.10;63.80;;;;;;5026176;28;20030;-70
2021/09/28 11:02:59;;;;;;;2.22;1.70;;;18.20;63.40;;;;;;5026135;28;20030;-70
2021/09/28 11:05:44;;;;;;;4.35;2.22;;;18.20;62.50;;;;;;5041117;28;20018;-69
2021/09/28 11:08:12;;;;;;;2.13;1.92;;;18.40;61.80;;;;;;5025891;28;20258;-70
2021/09/28 11:10:38;;;;;;;5.18;1.90;;;19.30;64.10;;;;;;5025797;28;20032;-69
2021/09/28 11:13:11;;;;;;;4.77;1.80;;;20.20;60.00;;;;;;5025701;28;20216;-69
2021/09/28 11:15:37;;;;;;;1.98;1.77;;;20.50;56.70;;;;;;5025852;28;20025;-70
2021/09/28 11:18:07;;;;;;;1.83;1.48;;;20.20;56.20;;;;;;5025752;28;20026;-70
2021/09/28 11:20:33;;;;;;;2.58;1.40;;;20.60;55.10;;;;;;5025423;28;20022;-70
2021/09/28 11:23:11;;;;;;;2.10;1.47;;;20.50;54.30;;;;;;5026010;28;20018;-69
2021/09/28 11:25:37;;;;;;;2.05;1.85;;;20.10;57.00;;;;;;5025651;28;20266;-69
2021/09/28 11:28:07;;;;;;;1.48;1.08;;;19.50;53.90;;;;;;5067332;23;20298;-76
2021/09/28 11:30:35;;;;;;;1.42;1.17;;;19.30;55.50;;;;;;5096316;28;20313;-75
2021/09/28 11:33:05;;;;;;;2.42;1.30;;;19.30;55.80;;;;;;5101126;28;20043;-75
2021/09/28 11:35:32;;;;;;;3.20;1.42;;;19.20;56.80;;;;;;5100470;28;20028;-75
2021/09/28 11:38:00;;;;;;;1.92;1.40;;;19.20;56.90;;;;;;5083903;28;20031;-75
2021/09/28 11:40:38;;;;;;;6.35;1.50;;;19.20;56.90;;;;;;5067291;28;20028;-75
2021/09/28 11:43:24;;;;;;;2.75;1.48;;;19.10;55.90;;;;;;5068137;28;20024;-75
2021/09/28 11:46:00;;;;;;;1.30;1.13;;;18.90;55.90;;;;;;5067128;28;20048;-75
2021/09/28 11:48:43;;;;;;;1.35;1.25;;;19.10;57.10;;;;;;5067359;28;20091;-75
2021/09/28 11:51:24;;;;;;;4.03;1.30;;;19.20;56.50;;;;;;5069188;28;20323;-75
2021/09/28 11:54:03;;;;;;;2.97;1.38;;;19.80;56.60;;;;;;5054727;28;20024;-76
2021/09/28 11:56:35;;;;;;;2.47;0.93;;;21.80;52.10;;;;;;5055863;28;20080;-76
2021/09/28 11:59:01;;;;;;;1.20;1.10;;;22.40;51.10;;;;;;5054409;28;20027;-76
2021/09/28 12:01:27;;;;;;;1.80;1.00;;;23.20;49.90;;;;;;5069597;28;20084;-76
2021/09/28 12:04:19;;;;;;;1.70;1.33;;;24.00;46.10;;;;;;5069353;28;20035;-76
2021/09/28 12:08:04;;;;;;;4.55;1.52;;;23.60;45.30;;;;;;5068976;28;20020;-76
2021/09/28 12:09:57;;;;;;;1.85;1.15;;;22.30;48.30;;;;;;5054756;28;20071;-76
2021/09/28 12:12:26;;;;;;;1.00;0.90;;;21.50;49.40;;;;;;5084776;28;20033;-76
2021/09/28 12:14:54;;;;;;;2.05;1.27;;;21.10;50.60;;;;;;5067095;28;20040;-76
2021/09/28 12:17:46;;;;;;;0.98;0.88;;;20.90;51.30;;;;;;5083639;28;20032;-76
2021/09/28 12:20:22;;;;;;;1.50;1.05;;;21.50;49.40;;;;;;5083427;28;20017;-76
2021/09/28 12:22:57;;;;;;;1.95;1.10;;;22.30;46.60;;;;;;5066960;28;20016;-75
2021/09/28 12:25:33;;;;;;;2.60;1.00;;;22.90;47.40;;;;;;5083400;28;20024;-76
2021/09/28 12:28:07;;;;;;;1.40;0.90;;;24.40;45.40;;;;;;5050355;28;20035;-76
2021/09/28 12:30:47;;;;;;;1.92;1.20;;;25.40;41.70;;;;;;5067320;28;20028;-76
2021/09/28 12:33:14;;;;;;;1.38;1.13;;;25.30;42.00;;;;;;5084282;28;20035;-76
2021/09/28 12:35:40;;;;;;;2.70;1.00;;;23.70;41.60;;;;;;5066548;28;20024;-76
2021/09/28 12:38:09;;;;;;;3.17;0.85;;;23.00;43.50;;;;;;5084062;28;20028;-76
2021/09/28 12:40:42;;;;;;;1.63;1.10;;;22.30;45.50;;;;;;5066580;28;20024;-76
2021/09/28 12:43:12;;;;;;;1.08;0.88;;;22.10;46.80;;;;;;5067166;28;20012;-75
2021/09/28 12:45:49;;;;;;;1.75;0.93;;;21.50;47.40;;;;;;5050553;28;20267;-76
2021/09/28 12:48:16;;;;;;;1.05;0.80;;;20.90;48.70;;;;;;5082966;28;20051;-76
2021/09/28 12:50:42;;;;;;;1.83;0.95;;;21.00;48.90;;;;;;5066001;28;20089;-76
2021/09/28 12:53:12;;;;;;;3.10;0.95;;;21.10;49.10;;;;;;5066158;28;20235;-75
2021/09/28 12:55:39;;;;;;;2.17;0.73;;;22.30;48.20;;;;;;5082613;28;20032;-76
2021/09/28 12:58:07;;;;;;;1.13;0.73;;;23.70;43.60;;;;;;5069506;28;20020;-76
2021/09/28 13:00:33;;;;;;;1.58;0.80;;;24.60;43.10;;;;;;5102140;28;20020;-76